Time;durP1;ratioP1;P1;durP2;ratioP2;P2;SDS_P1;SDS_P2;PMS_P1;PMS_P2;Temp;Humidity;BMP_temperature;BMP_pressure;BME280_temperature;BME280_humidity;BME280_pressure;Samples;Min_cycle;Max_cycle;Signal;HPM_P1;HPM_P2
2021/12/03 00:00:42;;;;;;;5.67;5.10;;;-0.20;20.80;;;;;;6262661;28;20597;-59
2021/12/03 00:03:46;;;;;;;5.67;5.10;;;-0.30;21.30;;;;;;6263290;28;20245;-54
2021/12/03 00:06:49;;;;;;;7.97;5.00;;;-0.10;21.70;;;;;;6262165;28;20288;-54
2021/12/03 00:09:51;;;;;;;6.33;5.43;;;-0.30;21.40;;;;;;6237821;28;20322;-54
2021/12/03 00:12:57;;;;;;;4.93;4.63;;;0.00;21.30;;;;;;6240221;28;20333;-55
2021/12/03 00:16:03;;;;;;;5.33;5.00;;;-0.20;21.50;;;;;;6251272;28;20242;-53
2021/12/03 00:19:07;;;;;;;5.33;4.90;;;-0.10;21.70;;;;;;6262504;28;20238;-54
2021/12/03 00:22:09;;;;;;;8.07;5.33;;;0.00;21.90;;;;;;6262399;28;20287;-53
2021/12/03 00:25:12;;;;;;;6.70;5.37;;;0.00;21.80;;;;;;6247704;28;20247;-55
2021/12/03 00:28:15;;;;;;;6.80;5.00;;;-0.30;21.20;;;;;;6237211;28;20262;-55
2021/12/03 00:31:20;;;;;;;5.57;4.70;;;-0.10;21.50;;;;;;6250029;28;20832;-55
2021/12/03 00:34:23;;;;;;;5.67;4.97;;;-0.20;20.90;;;;;;6260783;28;20623;-54
2021/12/03 00:37:26;;;;;;;5.13;3.87;;;-0.30;20.40;;;;;;6262131;28;20879;-54
2021/12/03 00:40:32;;;;;;;6.37;4.53;;;-0.10;21.00;;;;;;6261523;28;20241;-56
2021/12/03 00:43:37;;;;;;;5.93;4.43;;;-0.20;21.20;;;;;;6237124;28;20296;-55
2021/12/03 00:46:41;;;;;;;5.07;4.73;;;-0.10;22.00;;;;;;6241999;28;20261;-54
2021/12/03 00:49:44;;;;;;;4.93;4.57;;;-0.20;20.80;;;;;;6261131;28;20233;-55
2021/12/03 00:52:48;;;;;;;4.60;4.30;;;-0.20;21.00;;;;;;6261674;28;20857;-55
2021/12/03 00:55:51;;;;;;;5.43;5.07;;;-0.20;21.00;;;;;;6250164;28;20372;-54
2021/12/03 00:58:53;;;;;;;5.43;5.03;;;-0.30;21.40;;;;;;6261049;28;20340;-55
2021/12/03 01:01:57;;;;;;;5.20;4.87;;;-0.30;20.70;;;;;;6261685;28;20236;-55
2021/12/03 01:05:01;;;;;;;5.87;4.60;;;-0.30;21.00;;;;;;6245009;28;20238;-55
2021/12/03 01:08:04;;;;;;;7.50;4.63;;;-0.10;20.20;;;;;;6254165;28;20325;-55
2021/12/03 01:11:08;;;;;;;6.93;4.43;;;-0.20;19.80;;;;;;6260935;28;20238;-55
2021/12/03 01:14:11;;;;;;;6.73;4.63;;;0.00;20.20;;;;;;6261321;28;20246;-55
2021/12/03 01:17:16;;;;;;;5.43;4.67;;;-0.10;19.60;;;;;;6255650;28;20326;-55
2021/12/03 01:20:19;;;;;;;4.37;4.13;;;0.00;19.50;;;;;;6261485;28;20309;-55
2021/12/03 01:23:22;;;;;;;5.37;4.87;;;0.00;20.30;;;;;;6260914;28;20267;-55
2021/12/03 01:26:25;;;;;;;8.23;4.73;;;0.00;19.40;;;;;;6248289;28;20318;-55
2021/12/03 01:29:28;;;;;;;5.07;4.87;;;0.00;19.50;;;;;;6236150;28;20759;-55
2021/12/03 01:32:32;;;;;;;5.13;4.83;;;-0.30;19.20;;;;;;6251647;28;20242;-55
2021/12/03 01:35:37;;;;;;;9.37;5.17;;;-0.10;19.70;;;;;;6245486;28;20321;-54
2021/12/03 01:38:40;;;;;;;5.23;4.73;;;0.20;19.60;;;;;;6236204;28;20253;-54
2021/12/03 01:41:44;;;;;;;6.53;4.90;;;0.00;20.30;;;;;;6236340;28;20262;-53
2021/12/03 01:44:47;;;;;;;9.73;4.93;;;0.10;20.60;;;;;;6236252;28;20873;-55
2021/12/03 01:47:53;;;;;;;8.57;4.60;;;0.20;20.60;;;;;;6250597;28;20327;-54
2021/12/03 01:50:56;;;;;;;4.83;4.57;;;-0.10;20.40;;;;;;6253652;28;20346;-55
2021/12/03 01:53:59;;;;;;;5.00;4.63;;;0.30;22.10;;;;;;6240897;28;20246;-55
2021/12/03 01:57:02;;;;;;;5.77;5.27;;;0.20;21.50;;;;;;6260738;28;20237;-55
2021/12/03 02:00:07;;;;;;;5.43;5.03;;;0.30;21.80;;;;;;6254838;28;20331;-55
2021/12/03 02:03:14;;;;;;;4.50;4.40;;;0.30;21.80;;;;;;6241035;28;20231;-55
2021/12/03 02:06:17;;;;;;;7.37;4.97;;;0.30;21.70;;;;;;6240577;28;20288;-55
2021/12/03 02:09:20;;;;;;;5.03;4.73;;;0.30;20.90;;;;;;6240964;28;20250;-55
2021/12/03 02:12:23;;;;;;;5.50;5.10;;;0.30;21.00;;;;;;6257053;28;20303;-54
2021/12/03 02:15:26;;;;;;;5.47;4.90;;;0.20;21.00;;;;;;6264277;28;20400;-53
2021/12/03 02:18:30;;;;;;;5.77;4.90;;;0.30;20.50;;;;;;6265371;28;20303;-55
2021/12/03 02:21:34;;;;;;;6.37;5.53;;;0.10;21.20;;;;;;6243012;28;20356;-54
2021/12/03 02:24:38;;;;;;;5.50;5.10;;;0.20;21.00;;;;;;6240527;28;20365;-53
2021/12/03 02:27:41;;;;;;;5.13;4.93;;;0.10;22.30;;;;;;6240329;28;20238;-55
2021/12/03 02:30:45;;;;;;;5.73;5.23;;;0.30;21.60;;;;;;6241216;28;20319;-55
2021/12/03 02:33:48;;;;;;;8.50;5.47;;;0.30;21.90;;;;;;6263779;28;20276;-53
2021/12/03 02:36:53;;;;;;;5.57;5.07;;;0.40;20.70;;;;;;6263963;28;20329;-53
2021/12/03 02:39:55;;;;;;;7.50;5.07;;;0.10;20.90;;;;;;6264184;28;20317;-55
2021/12/03 02:42:58;;;;;;;7.00;5.37;;;0.20;19.90;;;;;;6259977;28;20317;-55
2021/12/03 02:46:01;;;;;;;5.27;5.03;;;0.30;20.40;;;;;;6238965;28;20238;-54
2021/12/03 02:49:05;;;;;;;5.87;5.47;;;0.40;21.60;;;;;;6264058;28;20241;-54
2021/12/03 02:52:11;;;;;;;5.70;5.30;;;0.20;21.90;;;;;;6263972;28;20262;-55
2021/12/03 02:55:14;;;;;;;6.17;5.60;;;0.20;22.00;;;;;;6250423;28;20252;-54
2021/12/03 02:58:17;;;;;;;5.40;4.90;;;0.20;22.70;;;;;;6264897;28;20225;-55
2021/12/03 03:01:21;;;;;;;5.47;5.07;;;0.30;22.70;;;;;;6263969;28;20246;-57
2021/12/03 03:04:24;;;;;;;5.60;5.10;;;0.20;22.90;;;;;;6263600;28;20241;-56
2021/12/03 03:07:29;;;;;;;5.50;5.07;;;0.20;22.60;;;;;;6263941;28;20775;-56
2021/12/03 03:10:39;;;;;;;6.03;5.53;;;0.30;22.10;;;;;;6245413;28;22931;-55
2021/12/03 03:13:42;;;;;;;5.57;5.20;;;0.30;22.00;;;;;;6248524;28;20238;-55
2021/12/03 03:16:45;;;;;;;5.47;4.90;;;-0.10;23.20;;;;;;6264304;28;20248;-54
2021/12/03 03:19:49;;;;;;;5.70;5.20;;;-0.10;22.20;;;;;;6254240;28;20313;-55
2021/12/03 03:22:53;;;;;;;5.93;5.33;;;0.10;22.10;;;;;;6253076;28;20256;-54
2021/12/03 03:25:57;;;;;;;6.07;5.70;;;0.40;22.40;;;;;;6263241;28;20242;-56
2021/12/03 03:29:00;;;;;;;5.50;5.10;;;0.20;22.50;;;;;;6238761;28;20276;-55
2021/12/03 03:32:03;;;;;;;5.37;5.00;;;0.20;22.20;;;;;;6250543;28;20240;-55
2021/12/03 03:35:07;;;;;;;5.77;5.37;;;0.10;23.30;;;;;;6261726;28;20636;-55
2021/12/03 03:38:12;;;;;;;5.33;4.93;;;0.10;23.00;;;;;;6239291;28;20230;-54
2021/12/03 03:41:15;;;;;;;6.80;5.57;;;0.20;22.30;;;;;;6238625;28;20294;-55
2021/12/03 03:44:18;;;;;;;5.40;4.97;;;0.00;22.70;;;;;;6238394;28;20361;-54
2021/12/03 03:47:20;;;;;;;5.87;5.33;;;-0.10;23.20;;;;;;6249074;28;20317;-56
2021/12/03 03:50:25;;;;;;;5.40;5.00;;;-0.10;24.20;;;;;;6257636;28;20680;-56
2021/12/03 03:53:29;;;;;;;5.57;5.30;;;0.00;23.80;;;;;;6238834;28;20676;-55
2021/12/03 03:56:32;;;;;;;5.47;5.07;;;0.10;24.10;;;;;;6254672;28;20311;-55
2021/12/03 03:59:35;;;;;;;4.87;4.63;;;-0.20;24.30;;;;;;6239007;28;20425;-55
2021/12/03 04:02:38;;;;;;;7.20;5.30;;;0.10;24.20;;;;;;6238592;28;20223;-55
2021/12/03 04:05:41;;;;;;;5.40;4.97;;;0.20;24.60;;;;;;6239901;28;20535;-55
2021/12/03 04:08:47;;;;;;;5.30;4.90;;;0.20;23.90;;;;;;6239125;28;20341;-55
2021/12/03 04:11:49;;;;;;;6.80;5.20;;;0.30;23.10;;;;;;6240339;28;20312;-54
2021/12/03 04:14:53;;;;;;;5.23;4.83;;;0.40;22.60;;;;;;6257349;28;20327;-54
2021/12/03 04:17:55;;;;;;;5.67;5.10;;;0.10;21.90;;;;;;6264861;28;20368;-55
2021/12/03 04:20:58;;;;;;;5.97;4.97;;;0.20;22.60;;;;;;6264115;28;20269;-55
2021/12/03 04:24:03;;;;;;;5.60;5.10;;;-0.10;24.10;;;;;;6239150;28;20288;-53
2021/12/03 04:27:06;;;;;;;5.00;4.63;;;0.20;24.10;;;;;;6240038;28;20258;-55
2021/12/03 04:30:12;;;;;;;5.33;5.03;;;0.10;24.20;;;;;;6241493;28;20276;-53
2021/12/03 04:33:16;;;;;;;5.10;4.80;;;0.20;24.50;;;;;;6244061;28;20808;-54
2021/12/03 04:36:18;;;;;;;5.87;5.33;;;0.00;23.90;;;;;;6270772;28;20363;-53
2021/12/03 04:39:22;;;;;;;8.13;5.70;;;0.20;24.50;;;;;;6263188;28;20230;-54
2021/12/03 04:42:25;;;;;;;5.73;5.20;;;0.30;24.30;;;;;;6260161;28;20229;-53
2021/12/03 04:45:29;;;;;;;5.00;4.60;;;0.50;23.30;;;;;;6268123;28;20326;-54
2021/12/03 04:48:31;;;;;;;4.80;4.60;;;0.50;23.00;;;;;;6258615;28;20241;-54
2021/12/03 04:51:35;;;;;;;5.30;4.80;;;0.70;21.60;;;;;;6249726;28;20258;-55
2021/12/03 04:54:40;;;;;;;5.60;5.30;;;0.30;22.00;;;;;;6260028;28;20329;-55
2021/12/03 04:57:43;;;;;;;5.20;4.80;;;0.60;20.90;;;;;;6263466;28;20787;-53
2021/12/03 05:00:49;;;;;;;5.90;5.40;;;0.60;20.50;;;;;;6263082;28;20257;-54
2021/12/03 05:03:52;;;;;;;10.30;4.87;;;0.70;19.90;;;;;;6261666;28;20230;-55
2021/12/03 05:07:04;;;;;;;5.57;5.27;;;0.50;19.80;;;;;;6254807;28;20249;-55
2021/12/03 05:10:10;;;;;;;4.93;4.60;;;0.70;19.50;;;;;;6258526;28;20309;-54
2021/12/03 05:13:15;;;;;;;5.07;4.87;;;0.70;19.30;;;;;;6261660;28;20335;-53
2021/12/03 05:16:18;;;;;;;8.13;5.17;;;0.80;19.70;;;;;;6257731;28;20262;-54
2021/12/03 05:19:21;;;;;;;5.23;4.70;;;0.60;18.70;;;;;;6263228;28;20232;-56
2021/12/03 05:22:23;;;;;;;5.60;5.20;;;0.80;19.00;;;;;;6261333;28;20261;-55
2021/12/03 05:25:28;;;;;;;5.13;4.70;;;0.90;19.10;;;;;;6259990;28;20236;-54
2021/12/03 05:28:32;;;;;;;5.10;4.63;;;0.50;18.80;;;;;;6263123;28;20246;-54
2021/12/03 05:31:36;;;;;;;6.37;5.20;;;0.70;19.30;;;;;;6252906;28;20237;-54
2021/12/03 05:34:59;;;;;;;4.97;4.77;;;0.90;19.90;;;;;;6255688;28;20241;-53
2021/12/03 05:38:02;;;;;;;5.10;4.67;;;0.80;19.10;;;;;;6261443;28;20368;-54
2021/12/03 05:41:06;;;;;;;6.13;5.53;;;0.90;19.20;;;;;;6264582;28;20952;-54
2021/12/03 05:44:09;;;;;;;5.57;5.10;;;0.80;19.00;;;;;;6255809;28;20237;-55
2021/12/03 05:47:11;;;;;;;5.13;4.93;;;0.80;19.50;;;;;;6260056;28;20272;-55
2021/12/03 05:50:15;;;;;;;6.73;5.10;;;0.80;19.30;;;;;;6267198;28;20237;-53
2021/12/03 05:53:18;;;;;;;5.80;5.27;;;0.90;18.80;;;;;;6257449;28;20281;-55
2021/12/03 05:56:22;;;;;;;5.37;5.00;;;0.80;19.30;;;;;;6257671;28;20290;-60
2021/12/03 05:59:25;;;;;;;6.60;5.40;;;0.80;18.90;;;;;;6263983;28;20285;-56
2021/12/03 06:02:28;;;;;;;7.60;5.03;;;0.90;18.80;;;;;;6263037;28;20323;-55
2021/12/03 06:05:32;;;;;;;5.70;5.30;;;0.80;18.70;;;;;;6253714;28;20230;-55
2021/12/03 06:08:34;;;;;;;5.40;5.10;;;0.80;19.20;;;;;;6252743;28;20328;-55
2021/12/03 06:11:39;;;;;;;5.97;5.50;;;0.90;19.30;;;;;;6262434;28;20312;-57
2021/12/03 06:14:42;;;;;;;6.70;5.47;;;0.70;18.90;;;;;;6266260;28;20280;-55
2021/12/03 06:17:44;;;;;;;5.87;5.47;;;0.80;19.10;;;;;;6259467;28;20238;-55
2021/12/03 06:20:47;;;;;;;5.53;5.03;;;0.60;19.90;;;;;;6260410;28;20287;-55
2021/12/03 06:23:50;;;;;;;6.77;6.30;;;0.70;19.30;;;;;;6259058;28;20245;-56
2021/12/03 06:26:54;;;;;;;7.70;5.27;;;1.00;19.30;;;;;;6258090;28;20291;-55
2021/12/03 06:29:58;;;;;;;5.67;5.17;;;0.90;19.50;;;;;;6254563;28;20261;-55
2021/12/03 06:33:00;;;;;;;7.43;5.90;;;0.80;19.90;;;;;;6255864;28;20287;-55
2021/12/03 06:36:04;;;;;;;6.30;5.90;;;0.90;20.10;;;;;;6261908;28;20238;-56
2021/12/03 06:39:07;;;;;;;6.70;6.17;;;0.90;19.30;;;;;;6260995;28;20809;-55
2021/12/03 06:42:11;;;;;;;6.67;6.00;;;0.60;19.30;;;;;;6266994;28;20389;-54
2021/12/03 06:45:15;;;;;;;6.50;6.00;;;1.00;20.30;;;;;;6271112;28;20719;-55
2021/12/03 06:48:17;;;;;;;7.83;6.27;;;0.70;21.10;;;;;;6267901;28;20287;-56
2021/12/03 06:51:20;;;;;;;8.83;6.80;;;0.80;20.80;;;;;;6268264;28;20225;-56
2021/12/03 06:54:25;;;;;;;7.27;6.57;;;0.70;21.80;;;;;;6263224;28;20257;-55
2021/12/03 06:57:30;;;;;;;6.90;6.30;;;0.80;21.00;;;;;;6262663;28;20226;-55
2021/12/03 07:00:33;;;;;;;6.93;6.53;;;0.80;21.40;;;;;;6266087;28;20329;-55
2021/12/03 07:03:36;;;;;;;7.10;6.50;;;0.70;21.70;;;;;;6271570;28;20240;-55
2021/12/03 07:06:39;;;;;;;7.37;6.73;;;0.80;22.20;;;;;;6264755;28;20320;-55
2021/12/03 07:09:42;;;;;;;6.80;6.30;;;0.90;21.00;;;;;;6264738;28;20575;-55
2021/12/03 07:12:46;;;;;;;7.27;6.67;;;0.80;21.30;;;;;;6269386;28;20258;-54
2021/12/03 07:15:48;;;;;;;6.93;6.53;;;1.00;21.70;;;;;;6267666;28;20244;-55
2021/12/03 07:18:51;;;;;;;7.37;6.77;;;1.00;21.60;;;;;;6270345;28;20602;-55
2021/12/03 07:21:54;;;;;;;7.27;6.67;;;1.10;20.90;;;;;;6263826;28;20806;-55
2021/12/03 07:24:57;;;;;;;7.90;7.20;;;1.40;20.40;;;;;;6266099;28;20714;-55
2021/12/03 07:28:01;;;;;;;6.97;6.53;;;1.10;20.40;;;;;;6264836;28;20234;-56
2021/12/03 07:31:04;;;;;;;7.47;6.87;;;1.10;20.20;;;;;;6267598;28;20242;-55
2021/12/03 07:34:07;;;;;;;8.17;7.47;;;1.20;19.70;;;;;;6272890;28;20739;-55
2021/12/03 07:37:10;;;;;;;7.77;7.03;;;1.40;19.00;;;;;;6265315;28;20315;-56
2021/12/03 07:40:14;;;;;;;11.17;7.87;;;1.60;18.60;;;;;;6260506;28;20410;-56
2021/12/03 07:43:19;;;;;;;7.33;6.83;;;1.40;18.10;;;;;;6262067;28;20794;-56
2021/12/03 07:46:22;;;;;;;7.27;6.57;;;1.60;18.00;;;;;;6256913;28;20242;-55
2021/12/03 07:49:26;;;;;;;8.00;7.30;;;1.60;16.70;;;;;;6263467;28;20592;-55
2021/12/03 07:52:29;;;;;;;11.90;7.50;;;1.40;16.20;;;;;;6265904;28;20230;-56
2021/12/03 07:55:32;;;;;;;7.57;7.07;;;1.60;15.40;;;;;;6264890;28;20305;-55
2021/12/03 07:58:38;;;;;;;7.23;6.53;;;1.80;15.30;;;;;;6260687;28;20252;-55
2021/12/03 08:01:42;;;;;;;6.63;6.17;;;1.60;14.90;;;;;;6267351;28;20229;-55
2021/12/03 08:04:45;;;;;;;9.40;6.50;;;1.60;13.90;;;;;;6270303;28;20768;-56
2021/12/03 08:07:49;;;;;;;7.77;7.17;;;1.90;12.80;;;;;;6266450;28;20317;-55
2021/12/03 08:10:52;;;;;;;7.27;6.67;;;1.90;12.40;;;;;;6271360;28;20732;-55
2021/12/03 08:13:56;;;;;;;7.20;6.60;;;2.00;11.90;;;;;;6262813;28;20238;-56
2021/12/03 08:16:58;;;;;;;7.37;6.63;;;2.10;11.90;;;;;;6261887;28;20238;-54
2021/12/03 08:20:02;;;;;;;8.67;7.93;;;2.10;10.80;;;;;;6267417;28;20623;-55
2021/12/03 08:23:05;;;;;;;8.03;7.53;;;1.90;11.30;;;;;;6273115;28;20254;-56
2021/12/03 08:26:08;;;;;;;10.33;7.60;;;2.00;10.90;;;;;;6270305;28;20425;-55
2021/12/03 08:29:12;;;;;;;7.07;6.60;;;2.00;9.20;;;;;;6262226;28;20304;-57
2021/12/03 08:32:15;;;;;;;9.53;8.53;;;2.10;9.70;;;;;;6265257;28;20237;-55
2021/12/03 08:35:17;;;;;;;7.97;6.63;;;1.90;9.70;;;;;;6266561;28;20289;-56
2021/12/03 08:38:20;;;;;;;8.53;7.73;;;2.30;9.60;;;;;;6254380;28;20376;-56
2021/12/03 08:41:42;;;;;;;7.43;6.80;;;2.40;9.20;;;;;;6259999;28;20233;-55
2021/12/03 08:44:46;;;;;;;7.80;7.20;;;2.30;10.00;;;;;;6260454;28;20321;-56
2021/12/03 08:47:52;;;;;;;7.10;6.60;;;2.20;9.50;;;;;;6265126;28;20278;-55
2021/12/03 08:51:08;;;;;;;10.27;7.27;;;2.40;9.70;;;;;;6265135;28;20305;-55
2021/12/03 08:57:33;;;;;;;7.40;6.60;;;2.30;9.50;;;;;;6264425;28;20344;-56
2021/12/03 09:00:38;;;;;;;7.63;6.87;;;2.40;9.40;;;;;;6255733;28;20238;-56
2021/12/03 09:03:41;;;;;;;6.63;6.13;;;2.40;8.60;;;;;;6265600;28;20234;-55
2021/12/03 09:06:44;;;;;;;6.90;6.23;;;2.50;8.80;;;;;;6267239;28;20246;-55
2021/12/03 09:09:47;;;;;;;6.70;6.10;;;2.60;7.60;;;;;;6266220;28;20324;-55
2021/12/03 09:12:50;;;;;;;7.10;6.00;;;2.70;5.50;;;;;;6266948;28;20688;-54
2021/12/03 09:15:59;;;;;;;6.73;6.10;;;2.50;5.20;;;;;;6263573;28;20241;-55
2021/12/03 09:19:03;;;;;;;6.73;6.13;;;2.70;5.00;;;;;;6267234;28;20284;-55
2021/12/03 09:22:07;;;;;;;6.13;5.60;;;2.60;3.10;;;;;;6266283;28;20667;-55
2021/12/03 09:25:14;;;;;;;9.33;6.50;;;2.80;3.00;;;;;;6267077;28;20299;-56
2021/12/03 09:28:17;;;;;;;6.87;6.30;;;2.90;2.30;;;;;;6261940;28;20240;-56
2021/12/03 09:31:22;;;;;;;6.60;6.20;;;2.90;1.30;;;;;;6262986;28;21512;-56
2021/12/03 09:34:28;;;;;;;7.37;6.23;;;3.00;1.00;;;;;;6266339;28;20241;-54
2021/12/03 09:37:30;;;;;;;8.67;6.30;;;3.20;1.00;;;;;;6267824;28;20310;-56
2021/12/03 09:40:35;;;;;;;6.80;6.37;;;3.30;1.00;;;;;;6263662;28;20247;-56
2021/12/03 09:43:41;;;;;;;6.50;5.90;;;3.10;1.00;;;;;;6265950;28;20245;-54
2021/12/03 09:46:48;;;;;;;6.53;5.47;;;3.20;1.00;;;;;;6252984;28;20252;-55
2021/12/03 09:49:55;;;;;;;5.40;5.10;;;3.20;1.00;;;;;;6258657;28;20229;-54
2021/12/03 09:53:15;;;;;;;6.53;6.00;;;3.50;1.00;;;;;;6263629;28;20614;-56
2021/12/03 09:56:18;;;;;;;6.13;5.63;;;3.70;1.00;;;;;;6261695;28;20295;-56
2021/12/03 09:59:43;;;;;;;6.10;4.90;;;3.50;1.00;;;;;;6263782;28;20332;-56
2021/12/03 10:13:15;;;;;;;6.27;5.67;;;3.80;1.00;;;;;;6253673;28;20596;-56
2021/12/03 10:16:36;;;;;;;5.80;5.30;;;3.80;1.00;;;;;;6272146;28;20391;-56
2021/12/03 10:19:53;;;;;;;5.70;5.40;;;3.80;1.00;;;;;;6268856;28;20234;-55
2021/12/03 10:29:50;;;;;;;6.20;5.70;;;3.70;1.00;;;;;;6266458;28;20486;-55
2021/12/03 10:33:14;;;;;;;5.33;5.13;;;3.90;1.00;;;;;;6264211;28;20262;-56
2021/12/03 10:39:50;;;;;;;5.80;5.37;;;4.20;1.00;;;;;;6263848;28;20371;-56
2021/12/03 10:43:11;;;;;;;5.47;5.20;;;4.00;1.00;;;;;;6265315;28;20236;-56
2021/12/03 10:46:25;;;;;;;6.17;5.63;;;4.20;1.00;;;;;;6263214;28;20834;-55
2021/12/03 10:49:42;;;;;;;5.53;5.03;;;4.10;1.00;;;;;;6268887;28;20323;-54
2021/12/03 10:52:56;;;;;;;5.60;5.30;;;4.00;1.00;;;;;;6264086;28;20225;-59
2021/12/03 10:59:43;;;;;;;5.90;5.50;;;4.20;1.00;;;;;;6264245;28;20326;-56
2021/12/03 11:13:14;;;;;;;5.87;5.50;;;4.50;1.00;;;;;;6271225;28;20253;-55
2021/12/03 11:30:24;;;;;;;5.20;5.00;;;4.40;1.00;;;;;;6214835;28;20318;-55
2021/12/03 11:47:47;;;;;;;5.17;4.90;;;4.50;1.00;;;;;;6188318;28;20410;-54
2021/12/03 12:27:02;;;;;;;5.93;5.63;;;4.00;1.00;;;;;;6270136;28;20239;-54
2021/12/03 13:18:32;;;;;;;6.60;6.20;;;3.80;1.00;;;;;;6265653;28;20258;-55
2021/12/03 14:37:19;;;;;;;10.50;9.50;;;3.50;1.00;;;;;;6257847;28;20242;-54
2021/12/03 14:44:05;;;;;;;10.90;9.40;;;3.50;1.00;;;;;;6237206;28;20288;-56
2021/12/03 14:54:21;;;;;;;11.50;10.33;;;3.20;1.00;;;;;;6264677;28;20226;-55
2021/12/03 14:57:34;;;;;;;10.97;9.60;;;3.20;1.00;;;;;;6257272;28;20234;-56
2021/12/03 15:00:47;;;;;;;10.10;9.23;;;3.20;1.00;;;;;;6264230;28;20376;-54
2021/12/03 15:04:09;;;;;;;11.43;9.57;;;2.90;1.00;;;;;;6263808;28;20238;-55
2021/12/03 15:07:15;;;;;;;11.03;9.80;;;3.20;1.00;;;;;;6254471;28;20329;-54
2021/12/03 15:10:26;;;;;;;11.87;10.63;;;3.10;1.00;;;;;;6264095;28;20272;-54
2021/12/03 15:14:10;;;;;;;10.83;9.87;;;3.00;1.00;;;;;;6266932;28;20603;-55
2021/12/03 15:21:11;;;;;;;12.87;9.80;;;3.30;1.00;;;;;;6271169;28;20244;-54
2021/12/03 15:31:21;;;;;;;13.27;11.43;;;3.10;1.00;;;;;;6207987;28;20308;-55
2021/12/03 15:34:46;;;;;;;11.63;10.53;;;2.90;1.00;;;;;;6257601;28;20391;-56
2021/12/03 15:38:07;;;;;;;11.37;10.27;;;3.20;1.00;;;;;;6258490;28;20716;-53
2021/12/03 15:58:07;;;;;;;14.67;11.80;;;3.20;1.00;;;;;;6257404;28;20321;-54
2021/12/03 16:04:41;;;;;;;15.23;12.20;;;2.80;1.00;;;;;;6242308;28;20241;-54
2021/12/03 16:08:00;;;;;;;13.80;11.43;;;2.90;1.00;;;;;;6261693;28;20245;-56
2021/12/03 16:11:11;;;;;;;12.83;11.03;;;2.80;1.00;;;;;;6263627;28;20314;-53
2021/12/03 16:14:41;;;;;;;11.47;10.47;;;2.90;1.00;;;;;;6262307;28;20329;-54
2021/12/03 16:18:02;;;;;;;12.57;11.23;;;3.10;1.00;;;;;;6257184;28;20312;-55
2021/12/03 16:21:31;;;;;;;12.13;10.53;;;2.90;1.00;;;;;;6263792;28;20309;-57
2021/12/03 16:45:09;;;;;;;11.73;10.53;;;2.80;1.00;;;;;;6255977;28;20286;-55
2021/12/03 16:49:13;;;;;;;12.23;10.90;;;2.90;1.00;;;;;;6238346;28;20844;-54
2021/12/03 16:51:50;;;;;;;10.30;9.43;;;2.70;1.00;;;;;;6240119;28;20483;-58
2021/12/03 16:55:15;;;;;;;10.63;9.57;;;3.10;1.00;;;;;;6238380;28;20735;-54
2021/12/03 16:58:17;;;;;;;10.23;9.43;;;3.10;1.00;;;;;;6237576;28;20286;-55
2021/12/03 17:01:28;;;;;;;11.60;10.43;;;2.80;1.00;;;;;;6240414;28;20972;-58
2021/12/03 17:04:49;;;;;;;13.70;9.20;;;3.00;1.00;;;;;;6239408;28;20254;-58
2021/12/03 17:08:25;;;;;;;10.53;9.50;;;2.80;1.00;;;;;;6237649;28;20607;-55
2021/12/03 17:51:53;;;;;;;8.53;7.70;;;3.00;1.00;;;;;;6272713;28;20695;-55
2021/12/03 17:55:15;;;;;;;9.30;8.60;;;3.10;1.00;;;;;;6269753;28;20332;-56
2021/12/03 17:58:23;;;;;;;9.77;8.47;;;3.10;1.00;;;;;;6277190;28;20233;-53
2021/12/03 18:01:31;;;;;;;9.27;7.70;;;3.20;1.00;;;;;;6278140;28;20257;-54
2021/12/03 18:04:43;;;;;;;8.70;7.97;;;3.10;1.00;;;;;;6270419;28;20400;-56
2021/12/03 18:07:53;;;;;;;12.90;8.27;;;3.00;1.00;;;;;;6271134;28;20722;-54
2021/12/03 18:15:10;;;;;;;7.70;7.17;;;2.90;1.00;;;;;;6242927;28;20238;-56
2021/12/03 18:18:40;;;;;;;7.93;7.17;;;3.10;1.00;;;;;;6275402;28;20316;-55
2021/12/03 18:45:28;;;;;;;11.23;10.23;;;3.00;1.00;;;;;;6262106;28;20241;-54
2021/12/03 18:49:00;;;;;;;12.10;9.47;;;3.00;1.00;;;;;;6246905;28;20487;-55
2021/12/03 18:52:16;;;;;;;11.27;10.17;;;2.90;1.00;;;;;;6251413;28;20237;-55
2021/12/03 18:55:31;;;;;;;10.10;9.17;;;2.80;1.00;;;;;;6254216;28;20261;-55
2021/12/03 18:58:33;;;;;;;9.97;9.03;;;3.10;1.00;;;;;;6261400;28;20367;-55
2021/12/03 19:01:38;;;;;;;11.83;10.47;;;2.90;1.00;;;;;;6261681;28;20372;-55
2021/12/03 19:04:49;;;;;;;10.73;9.43;;;3.00;1.00;;;;;;6262114;28;20439;-55
2021/12/03 19:08:03;;;;;;;13.00;11.57;;;2.80;1.00;;;;;;6261113;28;20598;-55
2021/12/03 19:11:13;;;;;;;11.50;10.47;;;2.90;1.00;;;;;;6260880;28;20248;-55
2021/12/03 19:14:16;;;;;;;11.07;9.87;;;2.80;1.00;;;;;;6262030;28;20387;-55
2021/12/03 19:17:19;;;;;;;10.60;9.57;;;2.60;1.00;;;;;;6256328;28;20609;-55
2021/12/03 19:20:27;;;;;;;10.47;9.47;;;2.60;1.00;;;;;;6253062;28;20384;-54
2021/12/03 19:23:31;;;;;;;11.60;10.50;;;2.50;1.00;;;;;;6261804;28;20571;-54
2021/12/03 19:26:36;;;;;;;12.03;10.83;;;2.60;1.00;;;;;;6261952;28;20234;-55
2021/12/03 19:29:42;;;;;;;11.40;10.37;;;2.70;1.00;;;;;;6256073;28;20727;-55
2021/12/03 19:32:45;;;;;;;10.57;9.67;;;2.70;1.00;;;;;;6262420;28;20690;-55
2021/12/03 19:35:47;;;;;;;9.93;9.03;;;2.70;1.00;;;;;;6259679;28;20294;-55
2021/12/03 19:38:55;;;;;;;10.50;9.50;;;2.80;1.00;;;;;;6257218;28;20315;-55
2021/12/03 19:42:06;;;;;;;11.80;9.53;;;2.80;1.00;;;;;;6256092;28;20519;-55
2021/12/03 19:45:13;;;;;;;10.43;9.00;;;2.80;1.00;;;;;;6256155;28;20264;-54
2021/12/03 19:48:17;;;;;;;11.20;10.03;;;2.80;1.00;;;;;;6255315;28;20281;-55
2021/12/03 19:51:21;;;;;;;9.30;8.50;;;2.80;1.00;;;;;;6258906;28;20818;-56
2021/12/03 19:54:24;;;;;;;9.93;9.10;;;2.80;1.00;;;;;;6254412;28;20231;-56
2021/12/03 19:57:32;;;;;;;9.73;8.63;;;2.90;1.00;;;;;;6248692;28;20307;-55
2021/12/03 20:00:35;;;;;;;9.87;9.17;;;3.00;1.00;;;;;;6250317;28;20252;-54
2021/12/03 20:03:38;;;;;;;8.17;7.67;;;2.90;1.00;;;;;;6259175;28;20761;-54
2021/12/03 20:06:43;;;;;;;9.17;8.30;;;2.80;1.00;;;;;;6255733;28;20242;-55
2021/12/03 20:09:49;;;;;;;9.23;8.53;;;2.80;1.00;;;;;;6257057;28;20293;-56
2021/12/03 20:12:54;;;;;;;8.70;7.90;;;3.00;1.00;;;;;;6251910;28;20321;-54
2021/12/03 20:16:07;;;;;;;9.10;8.27;;;3.00;1.00;;;;;;6259604;28;20242;-54
2021/12/03 20:19:14;;;;;;;9.57;8.80;;;3.00;1.00;;;;;;6258220;28;20580;-54
2021/12/03 20:22:19;;;;;;;8.83;8.17;;;2.80;1.00;;;;;;6246795;28;20240;-54
2021/12/03 20:28:50;;;;;;;8.97;8.23;;;2.80;1.00;;;;;;6251402;28;20317;-54
2021/12/03 20:32:10;;;;;;;8.97;8.37;;;3.00;1.00;;;;;;6257269;28;20869;-54
2021/12/03 20:35:27;;;;;;;8.97;8.30;;;2.70;1.00;;;;;;6257186;28;20316;-55
2021/12/03 20:38:31;;;;;;;9.60;8.90;;;2.80;1.00;;;;;;6262180;28;20234;-54
2021/12/03 20:41:38;;;;;;;10.53;9.50;;;2.70;1.00;;;;;;6258421;28;20307;-54
2021/12/03 20:45:03;;;;;;;10.37;9.47;;;2.30;1.00;;;;;;6260089;28;20288;-55
2021/12/03 20:48:23;;;;;;;9.60;8.90;;;2.20;3.60;;;;;;6258872;28;20730;-54
2021/12/03 20:51:45;;;;;;;10.30;9.43;;;2.00;12.10;;;;;;6248283;28;20249;-54
2021/12/03 21:08:30;;;;;;;10.93;9.97;;;2.00;34.70;;;;;;6244550;28;20239;-55
2021/12/03 21:11:36;;;;;;;12.10;10.43;;;2.00;36.00;;;;;;6251033;28;20311;-55
2021/12/03 21:14:38;;;;;;;12.03;10.27;;;1.80;37.30;;;;;;6254817;28;20374;-54
2021/12/03 21:18:00;;;;;;;11.60;10.70;;;1.90;37.30;;;;;;6257871;28;20225;-54
2021/12/03 21:21:07;;;;;;;11.03;9.93;;;1.70;37.20;;;;;;6258451;28;20234;-55
2021/12/03 21:24:11;;;;;;;11.13;10.20;;;1.70;39.20;;;;;;6261467;28;20879;-54
2021/12/03 21:27:20;;;;;;;11.20;10.10;;;1.60;39.70;;;;;;6237989;28;20265;-54
2021/12/03 21:30:32;;;;;;;11.70;10.60;;;1.50;39.70;;;;;;6259410;28;20479;-54
2021/12/03 21:38:00;;;;;;;12.33;11.13;;;1.60;39.10;;;;;;6255906;28;20274;-54
2021/12/03 21:40:52;;;;;;;11.13;10.00;;;1.90;38.10;;;;;;6238297;28;20254;-53
2021/12/03 21:43:50;;;;;;;10.30;9.27;;;1.80;36.20;;;;;;6255208;28;20350;-54
2021/12/03 21:46:52;;;;;;;10.77;9.77;;;2.00;36.40;;;;;;6262664;28;20245;-53
2021/12/03 21:49:56;;;;;;;10.43;9.47;;;2.00;36.10;;;;;;6251452;28;20296;-54
2021/12/03 21:52:59;;;;;;;12.67;9.67;;;2.10;36.30;;;;;;6237658;28;20252;-53
2021/12/03 21:56:02;;;;;;;9.70;8.70;;;2.10;32.80;;;;;;6253690;28;20619;-53
2021/12/03 21:59:04;;;;;;;10.33;9.33;;;2.10;34.20;;;;;;6256827;28;20310;-54
2021/12/03 22:02:08;;;;;;;9.37;8.70;;;2.00;33.20;;;;;;6237467;28;20234;-55
2021/12/03 22:05:12;;;;;;;9.30;8.60;;;2.20;31.70;;;;;;6237205;28;20292;-54
2021/12/03 22:08:15;;;;;;;9.70;8.87;;;2.00;29.50;;;;;;6237129;28;20261;-54
2021/12/03 22:11:18;;;;;;;9.40;8.50;;;2.30;30.90;;;;;;6238031;28;20245;-54
2021/12/03 22:14:21;;;;;;;10.20;9.30;;;2.30;33.70;;;;;;6251202;28;20257;-54
2021/12/03 22:17:24;;;;;;;9.83;8.93;;;2.10;36.80;;;;;;6254683;28;20669;-54
2021/12/03 22:20:28;;;;;;;9.70;8.83;;;1.80;39.50;;;;;;6250572;28;20339;-54
2021/12/03 22:23:31;;;;;;;10.63;9.40;;;1.90;40.80;;;;;;6241392;28;20592;-55
2021/12/03 22:26:34;;;;;;;9.83;9.03;;;2.10;41.90;;;;;;6242278;28;20314;-54
2021/12/03 22:29:36;;;;;;;10.33;9.17;;;1.90;41.30;;;;;;6256574;28;20272;-54
2021/12/03 22:32:39;;;;;;;10.73;9.70;;;1.80;44.10;;;;;;6261948;28;20392;-54
2021/12/03 22:35:43;;;;;;;10.83;9.83;;;2.00;46.30;;;;;;6264733;28;20323;-54
2021/12/03 22:38:47;;;;;;;10.80;9.80;;;2.10;46.10;;;;;;6257470;28;20415;-54